Kerkhoven, Minnesota
Current Conditions -  °F | °C
As of 12:35 AM on Monday 29 Dec 2014 (Local Time) from KBDH Reporting Station
Scattered Clouds Scattered Clouds  
Wind Chill:   Ceiling: Unl
Heat Index: 12°   Visibility: 10mi
Dew Point:   Wind: 8mph
Humidity: 62%   Direction: 20°NNE
Pressure: 30.4"   Gusts: NA
Location:  45.19°N, 95.32°W
Report Text: KBDH 290635Z AUTO 02007KT 10SM SCT100 M11/M17 A3040 RMK AO2
Loading
Personal Weather Stations






























Interactive Weather Map New forecast layout! Learn more

10-Day Weather Forecast

Advertisements
Track Severe Weather on mobile